createdAt,value
2023-05-17T00:02:12.753Z,21.32
2023-05-17T00:04:39.123Z,21.33
2023-05-17T00:07:05.572Z,21.33
2023-05-17T00:09:31.953Z,21.32
2023-05-17T00:11:58.318Z,21.32
2023-05-17T00:14:24.974Z,21.31
2023-05-17T00:16:52.565Z,21.30
2023-05-17T00:19:19.702Z,21.30
2023-05-17T00:21:46.188Z,21.29
2023-05-17T00:24:12.548Z,21.28
2023-05-17T00:26:38.907Z,21.28
2023-05-17T00:29:05.759Z,21.26
2023-05-17T00:31:32.176Z,21.26
2023-05-17T00:33:58.799Z,21.25
2023-05-17T00:36:25.176Z,21.22
2023-05-17T00:38:51.681Z,21.25
2023-05-17T00:41:18.531Z,21.23
2023-05-17T00:43:44.901Z,21.22
2023-05-17T00:46:11.286Z,21.22
2023-05-17T00:48:37.875Z,21.21
2023-05-17T00:51:04.404Z,21.19
2023-05-17T00:53:30.830Z,21.19
2023-05-17T00:55:57.205Z,21.19
2023-05-17T00:58:23.573Z,21.19
2023-05-17T01:00:50.949Z,21.19
2023-05-17T01:03:17.470Z,21.19
2023-05-17T01:05:43.867Z,21.20
2023-05-17T01:08:10.951Z,21.19
2023-05-17T01:11:06.640Z,21.18
2023-05-17T01:13:56.103Z,21.19
2023-05-17T01:16:31.085Z,21.19
2023-05-17T01:19:03.660Z,21.18
2023-05-17T01:21:48.885Z,21.17
2023-05-17T01:24:28.866Z,21.16
2023-05-17T01:26:55.681Z,21.17
2023-05-17T01:29:23.235Z,21.17
2023-05-17T01:31:49.622Z,21.17
2023-05-17T01:34:24.041Z,21.17
2023-05-17T01:36:50.409Z,21.16
2023-05-17T01:39:16.869Z,21.15
2023-05-17T01:41:43.337Z,21.16
2023-05-17T01:44:13.959Z,21.15
2023-05-17T01:46:43.476Z,21.14
2023-05-17T01:49:14.513Z,21.14
2023-05-17T01:51:59.483Z,21.14
2023-05-17T01:54:28.234Z,21.13
2023-05-17T01:56:56.758Z,21.12
2023-05-17T01:59:25.176Z,21.11
2023-05-17T02:01:53.298Z,21.10
2023-05-17T02:04:20.139Z,21.11
2023-05-17T02:06:46.562Z,21.19
2023-05-17T02:09:13.039Z,21.22
2023-05-17T02:11:39.456Z,21.21
2023-05-17T02:14:05.842Z,21.22
2023-05-17T02:16:32.216Z,21.23
2023-05-17T02:18:58.687Z,21.20
2023-05-17T02:21:25.086Z,21.19
2023-05-17T02:23:51.465Z,21.19
2023-05-17T02:26:17.817Z,21.19
2023-05-17T02:28:44.183Z,21.24
2023-05-17T02:31:10.776Z,21.28
2023-05-17T02:33:37.562Z,21.22
2023-05-17T02:36:04.150Z,21.26
2023-05-17T02:38:30.581Z,21.29
2023-05-17T02:40:57.169Z,21.27
2023-05-17T02:43:23.668Z,21.28
2023-05-17T02:45:50.038Z,21.26
2023-05-17T02:48:16.750Z,21.28
2023-05-17T02:50:43.146Z,21.28
2023-05-17T02:53:09.851Z,21.28
2023-05-17T02:55:38.060Z,21.29
2023-05-17T02:58:04.676Z,21.31
2023-05-17T03:00:31.325Z,21.32
2023-05-17T03:02:57.982Z,21.34
2023-05-17T03:05:24.420Z,21.35
2023-05-17T03:07:50.834Z,21.36
2023-05-17T03:10:17.417Z,21.38
2023-05-17T03:12:43.920Z,21.37
2023-05-17T03:15:10.695Z,21.38
2023-05-17T03:17:37.177Z,21.42
2023-05-17T03:20:04.143Z,21.42
2023-05-17T03:22:30.595Z,21.42
2023-05-17T03:24:56.974Z,21.38
2023-05-17T03:27:23.395Z,21.38
2023-05-17T03:29:49.844Z,21.39
2023-05-17T03:32:16.213Z,21.39
2023-05-17T03:34:42.908Z,21.39
2023-05-17T03:37:09.305Z,21.39
2023-05-17T03:39:35.704Z,21.38
2023-05-17T03:42:02.335Z,21.39
2023-05-17T03:44:28.710Z,21.39
2023-05-17T03:46:55.114Z,21.38
2023-05-17T03:49:21.961Z,21.38
2023-05-17T03:51:48.342Z,21.37
2023-05-17T03:54:14.700Z,21.36
2023-05-17T03:56:43.549Z,21.34
2023-05-17T03:59:09.921Z,21.32
2023-05-17T04:01:36.289Z,21.30
2023-05-17T04:04:04.438Z,21.30
2023-05-17T04:06:30.940Z,21.29
2023-05-17T04:08:59.332Z,21.29
2023-05-17T04:11:27.290Z,21.30
2023-05-17T04:13:53.957Z,21.31
2023-05-17T04:16:20.506Z,21.33
2023-05-17T04:18:47.026Z,21.36
2023-05-17T04:21:13.459Z,21.38
2023-05-17T04:23:39.862Z,21.40
2023-05-17T04:26:06.339Z,21.42
2023-05-17T04:28:35.000Z,21.45
2023-05-17T04:31:01.613Z,21.48
2023-05-17T04:33:28.078Z,21.48
2023-05-17T04:35:54.600Z,21.49
2023-05-17T04:38:21.606Z,21.50
2023-05-17T04:40:47.963Z,21.50
2023-05-17T04:43:14.330Z,21.51
2023-05-17T04:45:41.072Z,21.52
2023-05-17T04:48:07.521Z,21.51
2023-05-17T04:50:34.029Z,21.51
2023-05-17T04:53:00.489Z,21.49
2023-05-17T04:55:27.113Z,21.48
2023-05-17T04:57:53.630Z,21.48
2023-05-17T05:00:23.087Z,21.48
2023-05-17T05:02:49.868Z,21.47
2023-05-17T05:05:16.323Z,21.47
2023-05-17T05:07:42.768Z,21.46
2023-05-17T05:10:09.130Z,21.44
2023-05-17T05:12:35.578Z,21.45
2023-05-17T05:15:01.959Z,21.43
2023-05-17T05:17:29.515Z,21.47
2023-05-17T05:19:56.037Z,21.50
2023-05-17T05:22:22.443Z,21.52
2023-05-17T05:24:49.087Z,21.55
2023-05-17T05:27:15.461Z,21.56
2023-05-17T05:29:42.616Z,21.59
2023-05-17T05:32:09.088Z,21.57
2023-05-17T05:34:35.780Z,21.54
2023-05-17T05:37:02.174Z,21.55
2023-05-17T05:39:28.514Z,21.52
2023-05-17T05:41:55.107Z,21.52
2023-05-17T05:44:22.196Z,21.50
2023-05-17T05:46:49.569Z,21.51
2023-05-17T05:49:16.072Z,21.52
2023-05-17T05:51:42.473Z,21.55
2023-05-17T05:54:08.858Z,21.56
2023-05-17T05:56:35.219Z,21.57
2023-05-17T05:59:01.586Z,21.58
2023-05-17T06:01:28.837Z,21.57
2023-05-17T06:03:55.789Z,21.56
2023-05-17T06:06:22.196Z,21.57
2023-05-17T06:08:48.660Z,21.56
2023-05-17T06:11:15.034Z,21.54
2023-05-17T06:13:41.437Z,21.54
2023-05-17T06:16:07.818Z,21.52
2023-05-17T06:18:34.452Z,21.51
2023-05-17T06:21:01.265Z,21.50
2023-05-17T06:23:27.943Z,21.50
2023-05-17T06:25:54.315Z,21.52
2023-05-17T06:28:20.798Z,21.53
2023-05-17T06:30:47.169Z,21.53
2023-05-17T06:33:13.688Z,21.50
2023-05-17T06:35:54.915Z,21.52
2023-05-17T06:38:23.074Z,21.48
2023-05-17T06:40:53.905Z,21.55
2023-05-17T06:43:20.300Z,21.49
2023-05-17T06:45:46.695Z,21.46
2023-05-17T06:48:13.142Z,21.52
2023-05-17T06:50:42.753Z,21.58
2023-05-17T06:53:09.674Z,21.59
2023-05-17T06:55:37.151Z,21.59
2023-05-17T06:58:03.978Z,21.57
2023-05-17T07:00:31.423Z,21.55
2023-05-17T07:02:59.127Z,21.56
2023-05-17T07:05:26.021Z,21.57
2023-05-17T07:07:53.082Z,21.57
2023-05-17T07:10:19.583Z,21.54
2023-05-17T07:12:46.819Z,21.52
2023-05-17T07:15:13.242Z,21.52
2023-05-17T07:17:40.869Z,21.53
2023-05-17T07:20:08.426Z,21.58
2023-05-17T07:22:34.878Z,21.60
2023-05-17T07:25:01.257Z,21.58
2023-05-17T07:27:27.654Z,21.58
2023-05-17T07:29:54.496Z,21.57
2023-05-17T07:32:20.862Z,21.57
2023-05-17T07:34:47.364Z,21.57
2023-05-17T07:37:13.807Z,21.59
2023-05-17T07:39:40.204Z,21.51
2023-05-17T07:42:06.820Z,21.64
2023-05-17T07:44:33.416Z,21.76
2023-05-17T07:46:59.861Z,21.84
2023-05-17T07:49:27.389Z,21.89
2023-05-17T07:51:55.684Z,21.87
2023-05-17T07:54:23.517Z,21.88
2023-05-17T07:56:50.035Z,21.86
2023-05-17T07:59:16.531Z,21.85
2023-05-17T08:01:43.187Z,21.87
2023-05-17T08:04:09.605Z,21.86
2023-05-17T08:06:36.024Z,21.84
2023-05-17T08:09:02.403Z,21.84
2023-05-17T08:11:28.889Z,21.80
2023-05-17T08:13:55.419Z,21.80
2023-05-17T08:16:21.918Z,21.79
2023-05-17T08:18:48.548Z,21.82
2023-05-17T08:21:14.990Z,21.80
2023-05-17T08:23:41.821Z,21.80
2023-05-17T08:26:08.199Z,21.81
2023-05-17T08:28:34.729Z,21.84
2023-05-17T08:31:01.228Z,21.86
2023-05-17T08:33:28.534Z,21.88
2023-05-17T08:35:55.490Z,21.93
2023-05-17T08:38:22.303Z,21.94
2023-05-17T08:40:53.208Z,21.95
2023-05-17T08:43:19.895Z,21.92
2023-05-17T08:45:46.863Z,21.93
2023-05-17T08:48:13.468Z,21.98
2023-05-17T08:50:39.946Z,22.05
2023-05-17T08:53:06.397Z,22.06
2023-05-17T08:55:33.315Z,22.08
2023-05-17T08:57:59.984Z,22.14
2023-05-17T09:00:26.414Z,22.16
2023-05-17T09:02:52.932Z,22.17
2023-05-17T09:05:20.337Z,22.20
2023-05-17T09:07:47.632Z,22.26
2023-05-17T09:10:14.006Z,22.22
2023-05-17T09:12:40.669Z,22.19
2023-05-17T09:15:14.327Z,22.19
2023-05-17T09:17:40.801Z,22.23
2023-05-17T09:20:08.426Z,22.23
2023-05-17T09:22:35.662Z,22.20
2023-05-17T09:25:04.534Z,22.19
2023-05-17T09:27:31.444Z,22.18
2023-05-17T09:29:58.237Z,22.18
2023-05-17T09:32:28.602Z,22.16
2023-05-17T09:34:56.444Z,22.16
2023-05-17T09:37:23.060Z,22.15
2023-05-17T09:39:49.423Z,22.14
2023-05-17T09:42:16.631Z,22.14
2023-05-17T09:44:53.349Z,22.12
2023-05-17T09:47:29.191Z,22.11
2023-05-17T09:49:56.314Z,22.09
2023-05-17T09:52:22.932Z,22.16
2023-05-17T09:54:55.782Z,22.16
2023-05-17T09:57:22.729Z,22.17
2023-05-17T09:59:49.281Z,22.15
2023-05-17T10:02:18.046Z,22.14
2023-05-17T10:04:44.791Z,22.14
2023-05-17T10:07:11.229Z,22.17
2023-05-17T10:09:37.602Z,22.18
2023-05-17T10:12:05.950Z,22.16
2023-05-17T10:14:32.975Z,22.15
2023-05-17T10:16:59.558Z,22.18
2023-05-17T10:19:26.170Z,22.18
2023-05-17T10:21:53.304Z,22.18
2023-05-17T10:24:22.689Z,22.18
2023-05-17T10:26:52.173Z,22.17
2023-05-17T10:29:20.951Z,22.17
2023-05-17T10:31:47.580Z,22.16
2023-05-17T10:34:14.136Z,22.17
2023-05-17T10:36:41.250Z,22.18
2023-05-17T10:39:10.714Z,22.21
2023-05-17T10:41:37.339Z,22.22
2023-05-17T10:44:04.410Z,22.23
2023-05-17T10:46:30.846Z,22.24
2023-05-17T10:48:57.942Z,22.26
2023-05-17T10:51:31.357Z,22.25
2023-05-17T10:54:13.223Z,22.26
2023-05-17T10:56:40.789Z,22.28
2023-05-17T10:59:23.111Z,22.29
2023-05-17T11:02:03.449Z,22.28
2023-05-17T11:04:39.488Z,22.28
2023-05-17T11:07:29.093Z,22.27
2023-05-17T11:09:56.230Z,22.28
2023-05-17T11:12:28.032Z,22.29
2023-05-17T11:14:54.523Z,22.30
2023-05-17T11:17:25.640Z,22.31
2023-05-17T11:19:55.453Z,22.31
2023-05-17T11:22:25.331Z,22.31
2023-05-17T11:24:51.867Z,22.30
2023-05-17T11:27:18.675Z,22.30
2023-05-17T11:29:47.885Z,22.29
2023-05-17T11:32:14.287Z,22.30
2023-05-17T11:34:40.669Z,22.32
2023-05-17T11:37:10.137Z,22.30
2023-05-17T11:39:36.737Z,22.29
2023-05-17T11:42:03.107Z,22.31
2023-05-17T11:44:32.886Z,22.30
2023-05-17T11:47:06.156Z,22.31
2023-05-17T11:49:36.345Z,22.30
2023-05-17T11:52:03.844Z,22.32
2023-05-17T11:54:30.193Z,22.34
2023-05-17T11:56:56.583Z,22.34
2023-05-17T11:59:23.001Z,22.35
2023-05-17T12:01:49.890Z,22.34
2023-05-17T12:04:25.909Z,22.35
2023-05-17T12:06:55.709Z,22.38
2023-05-17T12:09:22.419Z,22.34
2023-05-17T12:11:49.126Z,22.35
2023-05-17T12:14:16.682Z,22.34
2023-05-17T12:16:43.062Z,22.36
2023-05-17T12:19:20.045Z,22.38
2023-05-17T12:21:46.667Z,22.40
2023-05-17T12:24:13.117Z,22.39
2023-05-17T12:26:46.334Z,22.42
2023-05-17T12:29:14.017Z,22.40
2023-05-17T12:31:40.838Z,22.41
2023-05-17T12:34:09.128Z,22.40
2023-05-17T12:36:37.096Z,22.38
2023-05-17T12:39:05.950Z,22.38
2023-05-17T12:41:32.404Z,22.37
2023-05-17T12:44:13.880Z,22.34
2023-05-17T12:46:41.439Z,22.37
2023-05-17T12:49:08.763Z,22.39
2023-05-17T12:51:43.017Z,22.39
2023-05-17T12:54:09.677Z,22.38
2023-05-17T12:56:36.190Z,22.37
2023-05-17T12:59:12.277Z,22.36
2023-05-17T13:01:39.407Z,22.37
2023-05-17T13:04:05.843Z,22.37
2023-05-17T13:06:45.280Z,22.36
2023-05-17T13:09:11.698Z,22.35
2023-05-17T13:11:41.297Z,22.35
2023-05-17T13:14:08.337Z,22.35
2023-05-17T13:16:37.575Z,22.34
2023-05-17T13:19:04.641Z,22.35
2023-05-17T13:21:34.269Z,22.34
2023-05-17T13:24:00.644Z,22.33
2023-05-17T13:26:27.097Z,22.33
2023-05-17T13:28:53.481Z,22.35
2023-05-17T13:31:19.845Z,22.33
2023-05-17T13:33:48.492Z,22.34
2023-05-17T13:36:15.026Z,22.34
2023-05-17T13:38:41.440Z,22.33
2023-05-17T13:41:09.073Z,22.36
2023-05-17T13:43:35.814Z,22.37
2023-05-17T13:46:02.405Z,22.36
2023-05-17T13:48:28.866Z,22.37
2023-05-17T13:50:55.329Z,22.39
2023-05-17T13:53:21.764Z,22.38
2023-05-17T13:55:48.310Z,22.40
2023-05-17T13:58:14.863Z,22.38
2023-05-17T14:00:43.810Z,22.40
2023-05-17T14:03:10.876Z,22.38
2023-05-17T14:05:37.335Z,22.37
2023-05-17T14:08:03.779Z,22.37
2023-05-17T14:10:30.574Z,22.36
2023-05-17T14:12:57.226Z,22.35
2023-05-17T14:15:24.545Z,22.35
2023-05-17T14:17:50.978Z,22.35
2023-05-17T14:20:17.626Z,22.35
2023-05-17T14:22:44.083Z,22.35
2023-05-17T14:25:11.763Z,22.37
2023-05-17T14:27:38.123Z,22.39
2023-05-17T14:30:05.015Z,22.38
2023-05-17T14:32:31.603Z,22.40
2023-05-17T14:34:58.006Z,22.40
2023-05-17T14:37:24.722Z,22.39
2023-05-17T14:40:05.427Z,22.37
2023-05-17T14:42:33.076Z,22.36
2023-05-17T14:44:59.449Z,22.37
2023-05-17T14:47:25.836Z,22.38
2023-05-17T14:49:52.317Z,22.37
2023-05-17T14:52:18.879Z,22.37
2023-05-17T14:54:45.285Z,22.33
2023-05-17T14:57:14.528Z,22.34
2023-05-17T14:59:43.204Z,22.29
2023-05-17T15:02:11.657Z,22.28
2023-05-17T15:04:38.440Z,22.26
2023-05-17T15:07:05.973Z,22.24
2023-05-17T15:09:32.594Z,22.24
2023-05-17T15:11:59.050Z,22.24
2023-05-17T15:14:25.908Z,22.23
2023-05-17T15:16:52.742Z,22.24
2023-05-17T15:19:19.312Z,22.22
2023-05-17T15:21:45.761Z,22.22
2023-05-17T15:24:13.932Z,22.20
2023-05-17T15:26:41.865Z,22.22
2023-05-17T15:29:08.264Z,22.23
2023-05-17T15:31:34.650Z,22.21
2023-05-17T15:34:01.413Z,22.21
2023-05-17T15:36:27.859Z,22.19
2023-05-17T15:38:54.238Z,22.19
2023-05-17T15:43:53.688Z,22.19
2023-05-17T15:46:20.295Z,22.19
2023-05-17T15:48:46.739Z,22.18
2023-05-17T15:51:13.170Z,22.19
2023-05-17T15:53:39.528Z,22.20
2023-05-17T15:56:05.975Z,22.24
2023-05-17T15:58:35.521Z,22.26
2023-05-17T16:01:05.610Z,22.27
2023-05-17T16:03:32.297Z,22.33
2023-05-17T16:05:58.944Z,22.30
2023-05-17T16:08:25.607Z,22.30
2023-05-17T16:10:52.248Z,22.27
2023-05-17T16:13:18.618Z,22.26
2023-05-17T16:15:45.265Z,22.25
2023-05-17T16:18:13.794Z,22.25
2023-05-17T16:20:43.587Z,22.24
2023-05-17T16:23:10.097Z,22.20
2023-05-17T16:25:36.607Z,22.19
2023-05-17T16:28:02.986Z,22.18
2023-05-17T16:30:29.350Z,22.17
2023-05-17T16:32:55.925Z,22.17
2023-05-17T16:35:22.500Z,22.20
2023-05-17T16:37:49.229Z,22.20
2023-05-17T16:40:15.584Z,22.23
2023-05-17T16:42:42.859Z,22.17
2023-05-17T16:45:09.421Z,22.20
2023-05-17T16:47:36.266Z,22.23
2023-05-17T16:50:03.024Z,22.17
2023-05-17T16:52:30.192Z,22.20
2023-05-17T16:55:03.082Z,22.24
2023-05-17T16:57:30.730Z,22.22
2023-05-17T16:59:57.412Z,22.20
2023-05-17T17:02:26.602Z,22.13
2023-05-17T17:04:53.261Z,22.17
2023-05-17T17:07:19.622Z,22.15
2023-05-17T17:09:46.052Z,22.14
2023-05-17T17:12:24.033Z,22.14
2023-05-17T17:14:51.577Z,22.14
2023-05-17T17:17:17.970Z,22.14
2023-05-17T17:19:44.355Z,22.11
2023-05-17T17:22:11.817Z,22.10
2023-05-17T17:24:38.505Z,22.10
2023-05-17T17:27:04.990Z,22.08
2023-05-17T17:29:33.831Z,22.07
2023-05-17T17:32:00.322Z,22.06
2023-05-17T17:34:26.781Z,22.04
2023-05-17T17:36:53.565Z,22.04
2023-05-17T17:39:19.960Z,22.03
2023-05-17T17:41:46.325Z,22.03
2023-05-17T17:44:12.932Z,22.01
2023-05-17T17:46:39.376Z,21.51
2023-05-17T17:49:05.913Z,20.36
2023-05-17T17:51:32.281Z,21.15
2023-05-17T17:53:58.669Z,21.52
2023-05-17T17:56:25.784Z,21.66
2023-05-17T17:58:56.038Z,21.72
2023-05-17T18:01:23.280Z,21.75
2023-05-17T18:03:49.680Z,21.77
2023-05-17T18:06:16.198Z,21.77
2023-05-17T18:08:42.652Z,21.79
2023-05-17T18:11:09.079Z,21.78
2023-05-17T18:13:35.657Z,21.78
2023-05-17T18:16:02.123Z,21.80
2023-05-17T18:18:28.522Z,21.80
2023-05-17T18:20:55.988Z,21.80
2023-05-17T18:23:22.366Z,21.78
2023-05-17T18:25:50.619Z,21.79
2023-05-17T18:28:19.653Z,21.75
2023-05-17T18:30:50.611Z,21.77
2023-05-17T18:33:17.045Z,21.75
2023-05-17T18:35:44.171Z,21.77
2023-05-17T18:38:10.643Z,21.75
2023-05-17T18:40:37.104Z,21.06
2023-05-17T18:43:03.536Z,21.51
2023-05-17T18:45:31.799Z,21.63
2023-05-17T18:47:58.181Z,21.64
2023-05-17T18:50:24.565Z,21.68
2023-05-17T18:52:51.235Z,21.69
2023-05-17T18:55:17.826Z,21.67
2023-05-17T18:57:44.462Z,21.67
2023-05-17T19:00:11.037Z,21.69
2023-05-17T19:02:37.668Z,21.57
2023-05-17T19:05:04.282Z,21.65
2023-05-17T19:07:30.667Z,21.66
2023-05-17T19:09:57.019Z,21.66
2023-05-17T19:12:23.400Z,21.63
2023-05-17T19:14:49.743Z,21.65
2023-05-17T19:17:16.153Z,21.65
2023-05-17T19:19:42.552Z,21.59
2023-05-17T19:22:10.661Z,21.06
2023-05-17T19:24:37.500Z,21.33
2023-05-17T19:27:04.724Z,21.43
2023-05-17T19:29:32.980Z,21.46
2023-05-17T19:31:59.368Z,21.49
2023-05-17T19:34:25.899Z,21.46
2023-05-17T19:36:52.271Z,21.50
2023-05-17T19:39:19.550Z,21.50
2023-05-17T19:41:45.943Z,21.48
2023-05-17T19:44:12.321Z,21.47
2023-05-17T19:46:38.748Z,21.47
2023-05-17T19:49:05.366Z,21.48
2023-05-17T19:51:31.984Z,21.48
2023-05-17T19:53:58.350Z,21.48
2023-05-17T19:56:24.754Z,21.48
2023-05-17T19:58:51.329Z,21.48
2023-05-17T20:01:17.815Z,21.50
2023-05-17T20:03:44.528Z,21.49
2023-05-17T20:06:14.174Z,21.50
2023-05-17T20:08:43.529Z,21.49
2023-05-17T20:11:09.925Z,21.48
2023-05-17T20:13:40.022Z,21.47
2023-05-17T20:16:13.146Z,21.46
2023-05-17T20:18:43.339Z,21.44
2023-05-17T20:21:11.305Z,21.43
2023-05-17T20:23:37.758Z,21.42
2023-05-17T20:26:04.256Z,21.42
2023-05-17T20:28:30.605Z,21.39
2023-05-17T20:30:57.016Z,21.38
2023-05-17T20:33:26.575Z,21.33
2023-05-17T20:35:53.642Z,21.30
2023-05-17T20:38:20.300Z,21.30
2023-05-17T20:40:46.707Z,21.30
2023-05-17T20:43:14.376Z,21.32
2023-05-17T20:45:40.829Z,21.29
2023-05-17T20:48:07.328Z,21.29
2023-05-17T20:50:33.880Z,21.29
2023-05-17T20:53:00.436Z,21.28
2023-05-17T20:55:26.846Z,21.28
2023-05-17T20:57:53.221Z,21.27
2023-05-17T21:00:20.828Z,21.26
2023-05-17T21:02:47.319Z,21.26
2023-05-17T21:05:13.886Z,21.25
2023-05-17T21:07:40.312Z,21.25
2023-05-17T21:10:07.360Z,21.23
2023-05-17T21:12:34.234Z,21.23
2023-05-17T21:15:15.011Z,21.21
2023-05-17T21:17:41.998Z,21.20
2023-05-17T21:20:08.546Z,21.19
2023-05-17T21:22:34.954Z,21.18
2023-05-17T21:25:01.306Z,21.18
2023-05-17T21:27:28.773Z,21.17
2023-05-17T21:29:55.326Z,21.16
2023-05-17T21:32:21.829Z,21.15
2023-05-17T21:34:48.187Z,21.13
2023-05-17T21:37:14.551Z,21.12
2023-05-17T21:39:41.578Z,21.10
2023-05-17T21:42:07.963Z,21.08
2023-05-17T21:44:34.377Z,21.08
2023-05-17T21:47:01.212Z,21.08
2023-05-17T21:49:28.743Z,21.04
2023-05-17T21:51:55.168Z,21.08
2023-05-17T21:54:22.673Z,21.04
2023-05-17T21:56:49.046Z,21.04
2023-05-17T21:59:15.412Z,21.02
2023-05-17T22:01:41.969Z,21.01
2023-05-17T22:04:09.267Z,21.00
2023-05-17T22:06:35.750Z,20.97
2023-05-17T22:09:02.180Z,20.98
2023-05-17T22:11:28.751Z,21.01
2023-05-17T22:13:56.043Z,20.99
2023-05-17T22:16:23.868Z,20.98
2023-05-17T22:18:53.050Z,20.99
2023-05-17T22:21:19.473Z,21.00
2023-05-17T22:23:45.956Z,20.99
2023-05-17T22:26:12.385Z,20.98
2023-05-17T22:28:38.791Z,20.98
2023-05-17T22:31:07.606Z,20.97
2023-05-17T22:33:35.541Z,20.93
2023-05-17T22:36:02.588Z,20.97
2023-05-17T22:38:28.966Z,20.95
2023-05-17T22:40:56.148Z,20.96
2023-05-17T22:43:22.515Z,20.96
2023-05-17T22:45:49.852Z,20.95
2023-05-17T22:48:16.246Z,20.96
2023-05-17T22:50:42.648Z,20.96
2023-05-17T22:53:11.024Z,20.95
2023-05-17T22:55:37.419Z,20.93
2023-05-17T22:58:03.812Z,20.93
2023-05-17T23:00:30.194Z,20.91
2023-05-17T23:02:56.634Z,20.89
2023-05-17T23:05:23.202Z,20.88
2023-05-17T23:07:49.564Z,20.86
2023-05-17T23:10:15.944Z,20.85
2023-05-17T23:12:42.361Z,20.83
2023-05-17T23:15:09.380Z,20.82
2023-05-17T23:17:36.441Z,20.82
2023-05-17T23:20:07.924Z,20.81
2023-05-17T23:22:34.290Z,20.80
2023-05-17T23:25:03.453Z,20.79
2023-05-17T23:27:30.117Z,20.79
2023-05-17T23:29:56.688Z,20.78
2023-05-17T23:32:23.150Z,20.78
2023-05-17T23:34:49.626Z,20.78
2023-05-17T23:37:16.807Z,20.78
2023-05-17T23:39:43.174Z,20.77
2023-05-17T23:42:10.247Z,20.78
2023-05-17T23:44:37.864Z,20.77
2023-05-17T23:47:04.810Z,20.78
2023-05-17T23:49:31.267Z,20.75
2023-05-17T23:51:57.886Z,20.76
2023-05-17T23:54:24.318Z,20.75
2023-05-17T23:56:50.897Z,20.75
2023-05-17T23:59:17.242Z,20.74
